createdAt,value
2019-02-11T00:00:45.932Z,980.39
2019-02-11T00:01:45.922Z,980.45
2019-02-11T00:02:45.926Z,980.46
2019-02-11T00:03:45.926Z,980.54
2019-02-11T00:04:45.885Z,980.61
2019-02-11T00:05:45.880Z,980.56
2019-02-11T00:06:45.868Z,980.56
2019-02-11T00:07:45.878Z,980.62
2019-02-11T00:08:45.853Z,980.64
2019-02-11T00:09:45.857Z,980.67
2019-02-11T00:10:45.825Z,980.69
2019-02-11T00:11:45.811Z,980.74
2019-02-11T00:12:45.828Z,980.78
2019-02-11T00:13:45.827Z,980.79
2019-02-11T00:14:45.780Z,980.79
2019-02-11T00:15:45.802Z,980.81
2019-02-11T00:16:45.758Z,980.81
2019-02-11T00:17:45.744Z,980.85
2019-02-11T00:18:45.749Z,980.86
2019-02-11T00:19:45.756Z,980.86
2019-02-11T00:20:45.736Z,980.89
2019-02-11T00:21:45.703Z,980.97
2019-02-11T00:22:45.692Z,980.97
2019-02-11T00:23:45.683Z,981.01
2019-02-11T00:24:45.694Z,981.03
2019-02-11T00:25:45.659Z,981.07
2019-02-11T00:26:45.653Z,981.05
2019-02-11T00:27:45.639Z,981.09
2019-02-11T00:28:45.663Z,981.15
2019-02-11T00:29:45.642Z,981.17
2019-02-11T00:30:45.609Z,981.18
2019-02-11T00:31:45.599Z,981.16
2019-02-11T00:32:45.650Z,981.27
2019-02-11T00:33:45.580Z,981.28
2019-02-11T00:34:45.565Z,981.32
2019-02-11T00:35:45.548Z,981.27
2019-02-11T00:36:45.553Z,981.35
2019-02-11T00:37:45.530Z,981.34
2019-02-11T00:38:45.539Z,981.36
2019-02-11T00:39:45.505Z,981.36
2019-02-11T00:40:45.501Z,981.38
2019-02-11T00:41:45.494Z,981.47
2019-02-11T00:42:45.480Z,981.47
2019-02-11T00:43:45.486Z,981.43
2019-02-11T00:44:45.451Z,981.54
2019-02-11T00:45:45.441Z,981.49
2019-02-11T00:46:45.430Z,981.56
2019-02-11T00:47:45.415Z,981.61
2019-02-11T00:48:45.425Z,981.58
2019-02-11T00:49:45.420Z,981.62
2019-02-11T00:50:45.384Z,981.60
2019-02-11T00:51:45.372Z,981.63
2019-02-11T00:52:45.380Z,981.73
2019-02-11T00:53:45.354Z,981.74
2019-02-11T00:54:45.359Z,981.79
2019-02-11T00:55:45.330Z,981.79
2019-02-11T00:56:45.320Z,981.84
2019-02-11T00:57:45.373Z,981.88
2019-02-11T00:58:45.298Z,981.87
2019-02-11T00:59:45.366Z,981.99
2019-02-11T01:00:45.275Z,981.93
2019-02-11T01:01:45.320Z,981.97
2019-02-11T01:02:45.294Z,982.05
2019-02-11T01:03:45.244Z,982.08
2019-02-11T01:04:45.235Z,982.05
2019-02-11T01:05:45.233Z,982.06
2019-02-11T01:06:45.236Z,982.12
2019-02-11T01:07:45.201Z,982.12
2019-02-11T01:08:45.210Z,982.20
2019-02-11T01:09:45.183Z,982.29
2019-02-11T01:10:45.213Z,982.34
2019-02-11T01:11:45.159Z,982.36
2019-02-11T01:12:45.153Z,982.33
2019-02-11T01:13:45.160Z,982.43
2019-02-11T01:14:45.126Z,982.43
2019-02-11T01:15:45.110Z,982.52
2019-02-11T01:16:45.112Z,982.58
2019-02-11T01:17:45.116Z,982.58
2019-02-11T01:18:45.109Z,982.66
2019-02-11T01:19:45.069Z,982.66
2019-02-11T01:20:45.071Z,982.70
2019-02-11T01:21:45.049Z,982.72
2019-02-11T01:22:45.041Z,982.76
2019-02-11T01:23:45.050Z,982.77
2019-02-11T01:24:45.017Z,982.82
2019-02-11T01:25:45.029Z,982.89
2019-02-11T01:26:45.020Z,982.91
2019-02-11T01:27:44.978Z,983.07
2019-02-11T01:28:45.015Z,983.07
2019-02-11T01:29:44.963Z,983.08
2019-02-11T01:30:44.948Z,983.08
2019-02-11T01:31:44.939Z,983.10
2019-02-11T01:32:44.945Z,983.17
2019-02-11T01:33:44.939Z,983.18
2019-02-11T01:34:44.912Z,983.13
2019-02-11T01:35:44.895Z,983.18
2019-02-11T01:36:44.885Z,983.20
2019-02-11T01:37:44.893Z,983.26
2019-02-11T01:38:44.859Z,983.19
2019-02-11T01:39:44.873Z,983.32
2019-02-11T01:40:44.840Z,983.26
2019-02-11T01:41:44.838Z,983.29
2019-02-11T01:42:44.831Z,983.38
2019-02-11T01:43:44.802Z,983.37
2019-02-11T01:44:44.797Z,983.44
2019-02-11T01:45:44.797Z,983.42
2019-02-11T01:46:44.770Z,983.44
2019-02-11T01:47:44.788Z,983.48
2019-02-11T01:48:44.750Z,983.48
2019-02-11T01:49:44.744Z,983.50
2019-02-11T01:50:44.758Z,983.56
2019-02-11T01:51:44.727Z,983.57
2019-02-11T01:52:44.731Z,983.61
2019-02-11T01:53:44.715Z,983.60
2019-02-11T01:54:44.688Z,983.59
2019-02-11T01:55:44.698Z,983.60
2019-02-11T01:56:44.677Z,983.67
2019-02-11T01:57:44.651Z,983.66
2019-02-11T01:58:44.664Z,983.65
2019-02-11T01:59:44.653Z,983.76
2019-02-11T02:00:44.646Z,983.69
2019-02-11T02:01:44.608Z,983.74
2019-02-11T02:02:44.600Z,983.76
2019-02-11T02:03:44.586Z,983.77
2019-02-11T02:04:44.578Z,983.80
2019-02-11T02:05:44.591Z,983.86
2019-02-11T02:06:44.619Z,983.85
2019-02-11T02:07:44.567Z,983.87
2019-02-11T02:08:44.539Z,983.96
2019-02-11T02:09:44.520Z,983.95
2019-02-11T02:10:44.514Z,983.91
2019-02-11T02:11:44.535Z,983.90
2019-02-11T02:12:44.487Z,983.98
2019-02-11T02:13:45.166Z,983.94
2019-02-11T02:14:44.467Z,983.95
2019-02-11T02:15:44.456Z,984.02
2019-02-11T02:16:44.460Z,984.01
2019-02-11T02:17:44.436Z,984.05
2019-02-11T02:18:44.443Z,984.06
2019-02-11T02:19:44.412Z,984.06
2019-02-11T02:20:44.402Z,984.05
2019-02-11T02:21:44.411Z,984.14
2019-02-11T02:22:44.379Z,984.07
2019-02-11T02:23:44.389Z,984.11
2019-02-11T02:24:44.359Z,984.11
2019-02-11T02:25:44.342Z,984.15
2019-02-11T02:26:44.338Z,984.16
2019-02-11T02:27:44.328Z,984.19
2019-02-11T02:28:44.384Z,984.14
2019-02-11T02:29:44.304Z,984.18
2019-02-11T02:30:44.291Z,984.13
2019-02-11T02:31:44.277Z,984.11
2019-02-11T02:32:44.293Z,984.16
2019-02-11T02:33:44.259Z,984.26
2019-02-11T02:34:44.260Z,984.25
2019-02-11T02:35:44.263Z,984.32
2019-02-11T02:36:44.239Z,984.34
2019-02-11T02:37:44.212Z,984.28
2019-02-11T02:38:44.277Z,984.28
2019-02-11T02:39:44.197Z,984.36
2019-02-11T02:40:44.212Z,984.32
2019-02-11T02:41:44.168Z,984.31
2019-02-11T02:42:44.160Z,984.33
2019-02-11T02:43:44.148Z,984.31
2019-02-11T02:44:44.139Z,984.39
2019-02-11T02:45:44.161Z,984.44
2019-02-11T02:46:44.115Z,984.47
2019-02-11T02:47:44.107Z,984.49
2019-02-11T02:48:44.093Z,984.49
2019-02-11T02:49:44.088Z,984.46
2019-02-11T02:50:44.106Z,984.48
2019-02-11T02:51:44.089Z,984.51
2019-02-11T02:52:44.051Z,984.51
2019-02-11T02:53:44.042Z,984.52
2019-02-11T02:54:44.037Z,984.59
2019-02-11T02:55:44.036Z,984.53
2019-02-11T02:56:44.033Z,984.52
2019-02-11T02:57:44.018Z,984.55
2019-02-11T02:58:43.982Z,984.60
2019-02-11T02:59:43.971Z,984.59
2019-02-11T03:00:43.987Z,984.66
2019-02-11T03:01:43.953Z,984.69
2019-02-11T03:02:43.945Z,984.69
2019-02-11T03:03:43.953Z,984.70
2019-02-11T03:04:43.971Z,984.63
2019-02-11T03:05:43.913Z,984.65
2019-02-11T03:06:43.896Z,984.68
2019-02-11T03:07:43.907Z,984.73
2019-02-11T03:08:43.894Z,984.72
2019-02-11T03:09:43.861Z,984.67
2019-02-11T03:10:43.859Z,984.76
2019-02-11T03:11:43.855Z,984.83
2019-02-11T03:12:43.828Z,984.80
2019-02-11T03:13:43.836Z,984.81
2019-02-11T03:14:43.810Z,984.81
2019-02-11T03:15:43.802Z,984.86
2019-02-11T03:16:43.783Z,984.82
2019-02-11T03:17:43.776Z,984.87
2019-02-11T03:18:43.789Z,984.85
2019-02-11T03:19:43.777Z,984.90
2019-02-11T03:20:43.753Z,984.91
2019-02-11T03:21:43.733Z,984.91
2019-02-11T03:22:43.722Z,984.94
2019-02-11T03:23:43.713Z,984.87
2019-02-11T03:24:43.717Z,984.96
2019-02-11T03:25:43.687Z,984.94
2019-02-11T03:26:43.681Z,984.95
2019-02-11T03:27:43.685Z,984.99
2019-02-11T03:28:43.663Z,985.00
2019-02-11T03:29:43.686Z,985.01
2019-02-11T03:30:43.646Z,985.00
2019-02-11T03:31:43.632Z,985.06
2019-02-11T03:32:43.645Z,985.05
2019-02-11T03:33:43.604Z,985.06
2019-02-11T03:34:43.614Z,985.12
2019-02-11T03:35:43.576Z,985.13
2019-02-11T03:36:43.574Z,985.17
2019-02-11T03:37:43.565Z,985.20
2019-02-11T03:38:43.561Z,985.19
2019-02-11T03:39:43.549Z,985.25
2019-02-11T03:40:43.540Z,985.22
2019-02-11T03:41:43.533Z,985.22
2019-02-11T03:42:43.504Z,985.29
2019-02-11T03:43:43.497Z,985.27
2019-02-11T03:44:43.484Z,985.33
2019-02-11T03:45:43.465Z,985.39
2019-02-11T03:46:43.479Z,985.37
2019-02-11T03:47:43.447Z,985.44
2019-02-11T03:48:43.433Z,985.44
2019-02-11T03:49:43.430Z,985.51
2019-02-11T03:50:43.436Z,985.51
2019-02-11T03:51:43.403Z,985.56
2019-02-11T03:52:43.415Z,985.53
2019-02-11T03:53:43.384Z,985.55
2019-02-11T03:54:43.370Z,985.59
2019-02-11T03:55:43.367Z,985.53
2019-02-11T03:56:43.386Z,985.56
2019-02-11T03:57:43.336Z,985.60
2019-02-11T03:58:43.331Z,985.58
2019-02-11T03:59:43.342Z,985.61
2019-02-11T04:00:43.309Z,985.62
2019-02-11T04:01:43.310Z,985.69
2019-02-11T04:02:43.281Z,985.70
2019-02-11T04:03:43.270Z,985.75
2019-02-11T04:04:43.279Z,985.78
2019-02-11T04:05:43.270Z,985.82
2019-02-11T04:06:43.236Z,985.83
2019-02-11T04:07:43.256Z,985.88
2019-02-11T04:08:43.214Z,985.85
2019-02-11T04:09:43.202Z,985.88
2019-02-11T04:10:43.201Z,985.93
2019-02-11T04:11:43.180Z,985.90
2019-02-11T04:12:43.191Z,985.90
2019-02-11T04:13:43.159Z,986.00
2019-02-11T04:14:43.149Z,986.02
2019-02-11T04:15:43.150Z,986.04
2019-02-11T04:16:43.170Z,986.01
2019-02-11T04:17:43.128Z,985.98
2019-02-11T04:18:43.106Z,986.07
2019-02-11T04:19:43.091Z,986.03
2019-02-11T04:20:43.090Z,986.03
2019-02-11T04:21:43.091Z,986.07
2019-02-11T04:22:43.083Z,986.10
2019-02-11T04:23:43.077Z,986.11
2019-02-11T04:24:43.044Z,986.16
2019-02-11T04:25:43.052Z,986.19
2019-02-11T04:26:43.015Z,986.17
2019-02-11T04:27:43.034Z,986.23
2019-02-11T04:28:42.992Z,986.22
2019-02-11T04:29:43.016Z,986.23
2019-02-11T04:30:42.981Z,986.29
2019-02-11T04:31:42.959Z,986.30
2019-02-11T04:32:42.970Z,986.38
2019-02-11T04:33:42.962Z,986.36
2019-02-11T04:34:42.945Z,986.42
2019-02-11T04:35:42.917Z,986.43
2019-02-11T04:36:42.929Z,986.43
2019-02-11T04:37:43.438Z,986.47
2019-02-11T04:38:42.882Z,986.45
2019-02-11T04:39:42.890Z,986.49
2019-02-11T04:40:42.861Z,986.50
2019-02-11T04:41:42.852Z,986.58
2019-02-11T04:42:42.863Z,986.61
2019-02-11T04:43:42.864Z,986.59
2019-02-11T04:44:42.819Z,986.67
2019-02-11T04:45:42.812Z,986.61
2019-02-11T04:46:42.799Z,986.59
2019-02-11T04:47:42.789Z,986.67
2019-02-11T04:48:42.802Z,986.69
2019-02-11T04:49:42.800Z,986.74
2019-02-11T04:50:42.760Z,986.66
2019-02-11T04:51:42.737Z,986.73
2019-02-11T04:52:42.749Z,986.75
2019-02-11T04:53:42.731Z,986.80
2019-02-11T04:54:42.705Z,986.77
2019-02-11T04:55:42.713Z,986.85
2019-02-11T04:56:42.684Z,986.82
2019-02-11T04:57:42.695Z,986.85
2019-02-11T04:58:42.661Z,986.84
2019-02-11T04:59:42.676Z,986.88
2019-02-11T05:00:42.670Z,986.88
2019-02-11T05:01:42.627Z,986.87
2019-02-11T05:02:42.657Z,986.86
2019-02-11T05:03:42.612Z,986.95
2019-02-11T05:04:42.596Z,986.91
2019-02-11T05:05:42.599Z,986.98
2019-02-11T05:06:42.607Z,986.95
2019-02-11T05:07:42.619Z,986.99
2019-02-11T05:08:42.560Z,987.05
2019-02-11T05:09:42.544Z,987.01
2019-02-11T05:10:42.528Z,987.10
2019-02-11T05:11:42.542Z,987.13
2019-02-11T05:12:42.506Z,987.06
2019-02-11T05:13:42.494Z,987.10
2019-02-11T05:14:44.263Z,987.10
2019-02-11T05:15:42.534Z,987.14
2019-02-11T05:16:42.476Z,987.16
2019-02-11T05:17:42.452Z,987.20
2019-02-11T05:18:42.441Z,987.26
2019-02-11T05:19:42.428Z,987.21
2019-02-11T05:20:42.443Z,987.26
2019-02-11T05:21:42.416Z,987.25
2019-02-11T05:22:42.422Z,987.35
2019-02-11T05:23:42.419Z,987.36
2019-02-11T05:24:42.380Z,987.38
2019-02-11T05:25:42.362Z,987.47
2019-02-11T05:26:42.350Z,987.45
2019-02-11T05:27:42.400Z,987.51
2019-02-11T05:28:42.334Z,987.57
2019-02-11T05:29:42.327Z,987.57
2019-02-11T05:30:42.308Z,987.62
2019-02-11T05:31:42.333Z,987.63
2019-02-11T05:32:42.362Z,987.65
2019-02-11T05:33:42.279Z,987.64
2019-02-11T05:34:42.360Z,987.63
2019-02-11T05:35:42.339Z,987.66
2019-02-11T05:36:42.241Z,987.66
2019-02-11T05:37:44.135Z,987.69
2019-02-11T05:38:42.225Z,987.73
2019-02-11T05:39:42.243Z,987.71
2019-02-11T05:40:42.210Z,987.77
2019-02-11T05:41:42.186Z,987.78
2019-02-11T05:42:42.204Z,987.80
2019-02-11T05:43:42.160Z,987.85
2019-02-11T05:44:42.178Z,987.82
2019-02-11T05:45:42.144Z,987.86
2019-02-11T05:46:42.136Z,987.90
2019-02-11T05:47:42.138Z,987.95
2019-02-11T05:48:42.108Z,987.96
2019-02-11T05:49:42.128Z,988.04
2019-02-11T05:50:42.101Z,988.05
2019-02-11T05:51:42.078Z,988.08
2019-02-11T05:52:42.063Z,988.12
2019-02-11T05:53:42.055Z,988.13
2019-02-11T05:54:42.068Z,988.10
2019-02-11T05:55:42.076Z,988.12
2019-02-11T05:56:42.056Z,988.18
2019-02-11T05:57:42.044Z,988.13
2019-02-11T05:58:42.032Z,988.17
2019-02-11T05:59:42.039Z,988.17
2019-02-11T06:00:42.019Z,988.25
2019-02-11T06:01:41.984Z,988.25
2019-02-11T06:02:41.954Z,988.29
2019-02-11T06:03:41.982Z,988.33
2019-02-11T06:04:41.937Z,988.37
2019-02-11T06:05:41.960Z,988.35
2019-02-11T06:06:41.998Z,988.37
2019-02-11T06:07:41.898Z,988.39
2019-02-11T06:08:41.891Z,988.46
2019-02-11T06:09:41.881Z,988.50
2019-02-11T06:10:41.911Z,988.48
2019-02-11T06:11:41.885Z,988.51
2019-02-11T06:12:41.843Z,988.51
2019-02-11T06:13:41.833Z,988.50
2019-02-11T06:14:41.862Z,988.54
2019-02-11T06:15:41.809Z,988.57
2019-02-11T06:16:41.881Z,988.67
2019-02-11T06:17:41.785Z,988.64
2019-02-11T06:18:41.802Z,988.70
2019-02-11T06:19:41.772Z,988.78
2019-02-11T06:20:41.751Z,988.81
2019-02-11T06:21:41.768Z,988.80
2019-02-11T06:22:41.735Z,988.78
2019-02-11T06:23:41.721Z,988.77
2019-02-11T06:24:41.732Z,988.76
2019-02-11T06:25:41.700Z,988.71
2019-02-11T06:26:41.702Z,988.82
2019-02-11T06:27:41.705Z,988.89
2019-02-11T06:28:41.669Z,988.90
2019-02-11T06:29:41.670Z,988.88
2019-02-11T06:30:41.649Z,988.95
2019-02-11T06:31:41.630Z,988.94
2019-02-11T06:32:41.641Z,988.98
2019-02-11T06:33:41.612Z,988.96
2019-02-11T06:34:41.658Z,989.02
2019-02-11T06:35:41.589Z,988.98
2019-02-11T06:36:41.580Z,989.01
2019-02-11T06:37:41.571Z,988.99
2019-02-11T06:38:41.588Z,989.07
2019-02-11T06:39:41.584Z,989.07
2019-02-11T06:40:41.541Z,989.09
2019-02-11T06:41:41.525Z,989.20
2019-02-11T06:42:41.565Z,989.30
2019-02-11T06:43:41.503Z,989.32
2019-02-11T06:44:41.512Z,989.41
2019-02-11T06:45:41.479Z,989.33
2019-02-11T06:46:41.467Z,989.38
2019-02-11T06:47:41.479Z,989.35
2019-02-11T06:48:41.452Z,989.41
2019-02-11T06:49:41.431Z,989.38
2019-02-11T06:50:41.447Z,989.42
2019-02-11T06:51:41.449Z,989.42
2019-02-11T06:52:41.406Z,989.44
2019-02-11T06:53:41.396Z,989.48
2019-02-11T06:54:41.382Z,989.50
2019-02-11T06:55:41.373Z,989.54
2019-02-11T06:56:41.387Z,989.55
2019-02-11T06:57:41.369Z,989.60
2019-02-11T06:58:41.341Z,989.65
2019-02-11T06:59:41.322Z,989.67
2019-02-11T07:00:41.319Z,989.66
2019-02-11T07:01:41.307Z,989.73
2019-02-11T07:02:41.334Z,989.70
2019-02-11T07:03:41.302Z,989.72
2019-02-11T07:04:41.273Z,989.75
2019-02-11T07:05:41.258Z,989.86
2019-02-11T07:06:41.243Z,989.84
2019-02-11T07:07:41.640Z,989.86
2019-02-11T07:08:41.262Z,989.84
2019-02-11T07:09:41.208Z,989.91
2019-02-11T07:10:41.206Z,989.94
2019-02-11T07:11:41.200Z,989.96
2019-02-11T07:12:41.205Z,989.95
2019-02-11T07:13:41.195Z,989.97
2019-02-11T07:14:41.163Z,990.00
2019-02-11T07:15:41.143Z,990.02
2019-02-11T07:16:41.133Z,989.97
2019-02-11T07:17:41.133Z,990.05
2019-02-11T07:18:41.149Z,990.11
2019-02-11T07:19:41.101Z,990.17
2019-02-11T07:20:41.094Z,990.20
2019-02-11T07:21:41.079Z,990.18
2019-02-11T07:22:41.070Z,990.15
2019-02-11T07:23:41.080Z,990.20
2019-02-11T07:24:41.046Z,990.24
2019-02-11T07:25:41.038Z,990.33
2019-02-11T07:26:41.060Z,990.33
2019-02-11T07:27:41.012Z,990.34
2019-02-11T07:28:41.030Z,990.35
2019-02-11T07:29:41.003Z,990.41
2019-02-11T07:30:41.039Z,990.42
2019-02-11T07:31:40.973Z,990.49
2019-02-11T07:32:40.956Z,990.50
2019-02-11T07:33:40.947Z,990.52
2019-02-11T07:34:40.965Z,990.58
2019-02-11T07:35:40.925Z,990.59
2019-02-11T07:36:40.917Z,990.53
2019-02-11T07:37:40.905Z,990.59
2019-02-11T07:38:40.918Z,990.59
2019-02-11T07:39:40.923Z,990.63
2019-02-11T07:40:40.869Z,990.68
2019-02-11T07:41:40.887Z,990.64
2019-02-11T07:42:40.887Z,990.61
2019-02-11T07:43:40.838Z,990.70
2019-02-11T07:44:40.824Z,990.74
2019-02-11T07:45:40.821Z,990.78
2019-02-11T07:46:40.831Z,990.76
2019-02-11T07:47:40.797Z,990.71
2019-02-11T07:48:40.800Z,990.77
2019-02-11T07:49:40.770Z,990.76
2019-02-11T07:50:40.812Z,990.82
2019-02-11T07:51:42.413Z,990.81
2019-02-11T07:52:40.739Z,990.83
2019-02-11T07:53:40.770Z,990.86
2019-02-11T07:54:40.717Z,990.92
2019-02-11T07:55:40.705Z,990.93
2019-02-11T07:56:40.694Z,990.93
2019-02-11T07:57:40.723Z,990.88
2019-02-11T07:58:40.681Z,990.91
2019-02-11T07:59:40.673Z,990.91
2019-02-11T08:00:40.646Z,990.83
2019-02-11T08:01:40.641Z,990.82
2019-02-11T08:02:40.661Z,990.87
2019-02-11T08:03:40.616Z,990.87
2019-02-11T08:04:40.608Z,990.81
2019-02-11T08:05:40.590Z,990.90
2019-02-11T08:06:40.595Z,990.96
2019-02-11T08:07:40.608Z,990.91
2019-02-11T08:08:40.558Z,990.89
2019-02-11T08:09:40.547Z,990.86
2019-02-11T08:10:40.539Z,990.89
2019-02-11T08:11:40.531Z,990.91
2019-02-11T08:12:40.559Z,990.92
2019-02-11T08:13:40.518Z,990.82
2019-02-11T08:14:40.500Z,990.86
2019-02-11T08:15:40.483Z,990.88
2019-02-11T08:16:40.477Z,990.94
2019-02-11T08:17:40.494Z,990.91
2019-02-11T08:18:40.454Z,990.99
2019-02-11T08:19:40.438Z,990.96
2019-02-11T08:20:40.456Z,990.93
2019-02-11T08:21:40.415Z,990.92
2019-02-11T08:22:40.403Z,990.98
2019-02-11T08:23:40.391Z,991.03
2019-02-11T08:24:40.413Z,991.03
2019-02-11T08:25:40.370Z,991.06
2019-02-11T08:26:40.376Z,990.97
2019-02-11T08:27:40.366Z,990.99
2019-02-11T08:28:40.360Z,991.06
2019-02-11T08:29:40.326Z,991.02
2019-02-11T08:30:40.315Z,991.06
2019-02-11T08:31:40.304Z,991.16
2019-02-11T08:32:40.298Z,991.13
2019-02-11T08:33:40.309Z,991.07
2019-02-11T08:34:40.277Z,991.16
2019-02-11T08:35:40.282Z,991.24
2019-02-11T08:36:40.249Z,991.18
2019-02-11T08:37:40.264Z,991.27
2019-02-11T08:38:40.228Z,991.24
2019-02-11T08:39:40.222Z,991.34
2019-02-11T08:40:40.232Z,991.31
2019-02-11T08:41:40.219Z,991.36
2019-02-11T08:42:40.187Z,991.38
2019-02-11T08:43:40.172Z,991.38
2019-02-11T08:44:40.163Z,991.41
2019-02-11T08:45:46.882Z,991.39
2019-02-11T08:46:41.164Z,991.42
2019-02-11T08:47:40.162Z,991.46
2019-02-11T08:48:48.161Z,991.48
2019-02-11T08:49:40.104Z,991.54
2019-02-11T08:50:40.127Z,991.60
2019-02-11T08:51:40.083Z,991.55
2019-02-11T08:52:40.080Z,991.68
2019-02-11T08:53:40.081Z,991.64
2019-02-11T08:54:40.065Z,991.69
2019-02-11T08:55:40.043Z,991.64
2019-02-11T08:56:40.050Z,991.78
2019-02-11T08:57:40.016Z,991.85
2019-02-11T08:58:40.006Z,991.85
2019-02-11T08:59:39.994Z,991.89
2019-02-11T09:00:40.013Z,991.88
2019-02-11T09:01:39.982Z,991.97
2019-02-11T09:02:39.986Z,992.00
2019-02-11T09:03:39.950Z,992.06
2019-02-11T09:04:39.965Z,992.07
2019-02-11T09:05:39.927Z,992.10
2019-02-11T09:06:39.917Z,992.19
2019-02-11T09:07:39.908Z,992.18
2019-02-11T09:08:39.925Z,992.20
2019-02-11T09:09:39.906Z,992.25
2019-02-11T09:10:39.872Z,992.25
2019-02-11T09:11:39.860Z,992.28
2019-02-11T09:12:39.849Z,992.28
2019-02-11T09:13:39.845Z,992.35
2019-02-11T09:14:39.850Z,992.38
2019-02-11T09:15:39.840Z,992.38
2019-02-11T09:16:39.807Z,992.37
2019-02-11T09:17:39.796Z,992.42
2019-02-11T09:18:39.808Z,992.38
2019-02-11T09:19:39.772Z,992.42
2019-02-11T09:20:39.766Z,992.36
2019-02-11T09:21:39.804Z,992.44
2019-02-11T09:22:39.764Z,992.47
2019-02-11T09:23:39.732Z,992.51
2019-02-11T09:24:39.719Z,992.55
2019-02-11T09:25:39.708Z,992.57
2019-02-11T09:26:39.722Z,992.61
2019-02-11T09:27:39.690Z,992.60
2019-02-11T09:28:39.673Z,992.63
2019-02-11T09:29:39.662Z,992.65
2019-02-11T09:30:39.982Z,992.64
2019-02-11T09:31:39.640Z,992.69
2019-02-11T09:32:39.635Z,992.71
2019-02-11T09:33:39.661Z,992.73
2019-02-11T09:34:39.633Z,992.77
2019-02-11T09:35:39.624Z,992.82
2019-02-11T09:36:39.592Z,992.82
2019-02-11T09:37:39.600Z,992.80
2019-02-11T09:38:39.564Z,992.80
2019-02-11T09:39:39.580Z,992.81
2019-02-11T09:40:39.543Z,992.87
2019-02-11T09:41:39.550Z,992.90
2019-02-11T09:42:39.520Z,992.86
2019-02-11T09:43:39.561Z,992.95
2019-02-11T09:44:39.539Z,992.96
2019-02-11T09:45:39.485Z,992.95
2019-02-11T09:46:39.474Z,992.94
2019-02-11T09:47:40.588Z,992.93
2019-02-11T09:48:39.455Z,992.99
2019-02-11T09:49:39.474Z,993.03
2019-02-11T09:50:39.447Z,992.99
2019-02-11T09:51:39.419Z,992.99
2019-02-11T09:52:39.432Z,993.06
2019-02-11T09:53:39.398Z,993.08
2019-02-11T09:54:39.416Z,993.10
2019-02-11T09:55:39.375Z,993.09
2019-02-11T09:56:39.385Z,993.15
2019-02-11T09:57:39.358Z,993.19
2019-02-11T09:58:39.352Z,993.24
2019-02-11T09:59:39.358Z,993.29
2019-02-11T10:00:39.323Z,993.32
2019-02-11T10:01:39.312Z,993.35
2019-02-11T10:02:39.346Z,993.31
2019-02-11T10:03:39.322Z,993.33
2019-02-11T10:04:39.290Z,993.28
2019-02-11T10:05:39.264Z,993.34
2019-02-11T10:06:39.256Z,993.38
2019-02-11T10:07:39.258Z,993.41
2019-02-11T10:08:39.231Z,993.41
2019-02-11T10:09:39.229Z,993.45
2019-02-11T10:10:39.209Z,993.52
2019-02-11T10:11:39.196Z,993.50
2019-02-11T10:12:39.210Z,993.57
2019-02-11T10:13:39.175Z,993.50
2019-02-11T10:14:39.166Z,993.53
2019-02-11T10:15:39.162Z,993.57
2019-02-11T10:16:39.169Z,993.63
2019-02-11T10:17:39.134Z,993.64
2019-02-11T10:18:39.144Z,993.68
2019-02-11T10:19:39.114Z,993.65
2019-02-11T10:20:39.100Z,993.71
2019-02-11T10:21:39.103Z,993.73
2019-02-11T10:22:39.077Z,993.71
2019-02-11T10:23:39.088Z,993.75
2019-02-11T10:24:39.054Z,993.76
2019-02-11T10:25:39.094Z,993.75
2019-02-11T10:26:39.032Z,993.76
2019-02-11T10:27:39.051Z,993.80
2019-02-11T10:28:39.038Z,993.76
2019-02-11T10:29:39.061Z,993.77
2019-02-11T10:30:39.015Z,993.85
2019-02-11T10:31:38.984Z,993.87
2019-02-11T10:32:38.970Z,993.90
2019-02-11T10:33:38.958Z,993.90
2019-02-11T10:34:38.943Z,993.85
2019-02-11T10:35:42.336Z,993.87
2019-02-11T10:36:38.939Z,993.90
2019-02-11T10:37:38.912Z,993.96
2019-02-11T10:38:38.899Z,993.94
2019-02-11T10:39:38.906Z,993.99
2019-02-11T10:40:38.898Z,993.96
2019-02-11T10:41:38.875Z,994.04
2019-02-11T10:42:38.855Z,993.99
2019-02-11T10:43:38.843Z,994.02
2019-02-11T10:44:38.858Z,994.05
2019-02-11T10:45:38.822Z,994.05
2019-02-11T10:46:38.836Z,994.10
2019-02-11T10:47:38.800Z,994.10
2019-02-11T10:48:38.795Z,994.14
2019-02-11T10:49:38.806Z,994.12
2019-02-11T10:50:38.766Z,994.19
2019-02-11T10:51:38.757Z,994.18
2019-02-11T10:52:38.744Z,994.18
2019-02-11T10:53:38.732Z,994.20
2019-02-11T10:54:38.743Z,994.20
2019-02-11T10:55:38.737Z,994.17
2019-02-11T10:56:38.725Z,994.23
2019-02-11T10:57:38.689Z,994.22
2019-02-11T10:58:38.679Z,994.20
2019-02-11T10:59:38.667Z,994.29
2019-02-11T11:00:38.682Z,994.30
2019-02-11T11:01:38.664Z,994.35
2019-02-11T11:02:38.636Z,994.39
2019-02-11T11:03:38.631Z,994.40
2019-02-11T11:04:38.660Z,994.36
2019-02-11T11:05:38.625Z,994.43
2019-02-11T11:06:38.591Z,994.43
2019-02-11T11:07:38.578Z,994.40
2019-02-11T11:08:38.569Z,994.42
2019-02-11T11:09:38.562Z,994.44
2019-02-11T11:10:38.570Z,994.38
2019-02-11T11:11:38.536Z,994.45
2019-02-11T11:12:38.526Z,994.47
2019-02-11T11:13:38.513Z,994.50
2019-02-11T11:14:38.502Z,994.51
2019-02-11T11:15:38.518Z,994.57
2019-02-11T11:16:38.511Z,994.54
2019-02-11T11:17:38.468Z,994.54
2019-02-11T11:18:38.458Z,994.49
2019-02-11T11:19:38.447Z,994.54
2019-02-11T11:20:38.437Z,994.56
2019-02-11T11:21:39.267Z,994.65
2019-02-11T11:22:38.424Z,994.52
2019-02-11T11:23:38.403Z,994.55
2019-02-11T11:24:38.393Z,994.55
2019-02-11T11:25:38.381Z,994.56
2019-02-11T11:26:38.401Z,994.59
2019-02-11T11:27:38.359Z,994.65
2019-02-11T11:28:38.358Z,994.64
2019-02-11T11:29:38.336Z,994.66
2019-02-11T11:30:38.326Z,994.71
2019-02-11T11:31:38.352Z,994.66
2019-02-11T11:32:38.303Z,994.62
2019-02-11T11:33:38.297Z,994.65
2019-02-11T11:34:38.293Z,994.62
2019-02-11T11:35:38.272Z,994.62
2019-02-11T11:36:38.282Z,994.63
2019-02-11T11:37:38.249Z,994.63
2019-02-11T11:38:38.248Z,994.69
2019-02-11T11:39:38.225Z,994.70
2019-02-11T11:40:38.249Z,994.67
2019-02-11T11:41:38.204Z,994.66
2019-02-11T11:42:38.192Z,994.69
2019-02-11T11:43:38.183Z,994.78
2019-02-11T11:44:38.175Z,994.74
2019-02-11T11:45:38.184Z,994.74
2019-02-11T11:46:46.763Z,994.77
2019-02-11T11:47:39.137Z,994.77
2019-02-11T11:48:38.143Z,994.82
2019-02-11T11:49:38.115Z,994.94
2019-02-11T11:50:38.122Z,994.98
2019-02-11T11:51:38.117Z,994.97
2019-02-11T11:52:38.110Z,995.03
2019-02-11T11:53:38.078Z,995.12
2019-02-11T11:54:38.086Z,995.18
2019-02-11T11:55:38.064Z,995.03
2019-02-11T11:56:38.057Z,995.08
2019-02-11T11:57:38.030Z,995.05
2019-02-11T11:58:38.021Z,995.04
2019-02-11T11:59:38.042Z,995.09
2019-02-11T12:00:38.015Z,995.09
2019-02-11T12:01:37.994Z,995.17
2019-02-11T12:02:37.975Z,995.17
2019-02-11T12:03:37.999Z,995.23
2019-02-11T12:04:37.955Z,995.21
2019-02-11T12:05:37.961Z,995.18
2019-02-11T12:06:37.933Z,995.21
2019-02-11T12:07:37.921Z,995.21
2019-02-11T12:08:37.933Z,995.23
2019-02-11T12:09:37.929Z,995.28
2019-02-11T12:10:37.890Z,995.32
2019-02-11T12:11:37.891Z,995.35
2019-02-11T12:12:37.870Z,995.40
2019-02-11T12:13:37.875Z,995.35
2019-02-11T12:14:37.842Z,995.32
2019-02-11T12:15:37.865Z,995.32
2019-02-11T12:16:55.370Z,995.27
2019-02-11T12:17:38.815Z,995.31
2019-02-11T12:18:37.797Z,995.33
2019-02-11T12:19:37.787Z,995.28
2019-02-11T12:20:37.795Z,995.33
2019-02-11T12:21:37.779Z,995.38
2019-02-11T12:22:37.763Z,995.40
2019-02-11T12:23:37.784Z,995.43
2019-02-11T12:24:37.756Z,995.47
2019-02-11T12:25:37.764Z,995.52
2019-02-11T12:26:37.706Z,995.57
2019-02-11T12:27:37.714Z,995.58
2019-02-11T12:28:37.703Z,995.60